Kalundborg, Denmark
Current Conditions -  °F | °C
As of 4:20 AM on Friday 26 Dec 2014 (Local Time) from EKRK Reporting Station
Clear Clear  
Wind Chill: 18°   Ceiling: Unl
Heat Index: 18°   Visibility: 3mi
Dew Point: 18°   Wind: 2mph
Humidity: 100%   Direction: 290°WNW
Pressure: 30.3"   Gusts: NA
Location:  55.68°N, 11.1°E
Report Text: EKRK 260320Z AUTO 29002KT 5000NDV NCD M08/M08 Q1026 9972022399720227
Loading
Personal Weather Stations






























Interactive Weather Map New forecast layout! Learn more

10-Day Weather Forecast

Advertisements
Track Severe Weather on mobile